Time;durP1;ratioP1;P1;durP2;ratioP2;P2;SDS_P1;SDS_P2;PMS_P1;PMS_P2;Temp;Humidity;BMP_temperature;BMP_pressure;BME280_temperature;BME280_humidity;BME280_pressure;Samples;Min_cycle;Max_cycle;Signal;HPM_P1;HPM_P2
2023/11/11 00:01:42;;;;;;;1.77;1.10;;;7.20;92.40;;;;;;4793902;29;20035;-74
2023/11/11 00:04:08;;;;;;;1.33;1.00;;;7.30;92.40;;;;;;4794434;29;20049;-74
2023/11/11 00:06:33;;;;;;;2.03;1.33;;;7.20;92.40;;;;;;4810468;29;20130;-74
2023/11/11 00:08:59;;;;;;;1.30;1.00;;;7.20;92.40;;;;;;4810451;29;20031;-74
2023/11/11 00:11:25;;;;;;;1.25;0.98;;;7.10;92.40;;;;;;4793728;29;20108;-75
2023/11/11 00:13:51;;;;;;;1.23;1.00;;;7.10;92.40;;;;;;4810346;29;20137;-74
2023/11/11 00:16:19;;;;;;;0.95;0.88;;;7.10;92.50;;;;;;4809990;29;20081;-74
2023/11/11 00:18:45;;;;;;;1.77;1.10;;;7.10;92.50;;;;;;4794395;29;20130;-74
2023/11/11 00:21:11;;;;;;;1.60;0.98;;;7.10;92.50;;;;;;4810042;29;20398;-74
2023/11/11 00:23:37;;;;;;;1.25;1.02;;;7.10;92.50;;;;;;4793667;29;20035;-74
2023/11/11 00:26:04;;;;;;;1.58;1.20;;;7.10;92.50;;;;;;4810411;29;20057;-74
2023/11/11 00:28:30;;;;;;;1.23;0.90;;;7.10;92.50;;;;;;4809753;29;20046;-74
2023/11/11 00:30:55;;;;;;;1.33;0.90;;;7.00;92.40;;;;;;4793781;29;20098;-74
2023/11/11 00:33:22;;;;;;;1.10;1.00;;;7.00;92.50;;;;;;4793585;29;20054;-74
2023/11/11 00:35:47;;;;;;;1.02;0.80;;;7.00;92.50;;;;;;4793509;29;20047;-74
2023/11/11 00:38:14;;;;;;;1.55;0.90;;;7.00;92.50;;;;;;4809571;29;20500;-74
2023/11/11 00:40:40;;;;;;;1.58;1.00;;;7.00;92.50;;;;;;4810222;29;20115;-74
2023/11/11 00:43:09;;;;;;;1.25;0.73;;;6.90;92.50;;;;;;4794370;29;20047;-76
2023/11/11 00:45:34;;;;;;;1.35;0.90;;;6.90;92.50;;;;;;4809883;29;20091;-74
2023/11/11 00:48:01;;;;;;;0.90;0.65;;;6.90;92.50;;;;;;4790477;29;20439;-75
2023/11/11 00:50:27;;;;;;;1.60;1.00;;;6.80;92.50;;;;;;4790817;29;20153;-74
2023/11/11 00:52:52;;;;;;;0.68;0.65;;;6.80;92.50;;;;;;4790331;29;20142;-73
2023/11/11 00:55:18;;;;;;;1.65;1.10;;;6.80;92.50;;;;;;4790339;29;20479;-74
2023/11/11 00:57:46;;;;;;;1.10;0.93;;;6.80;92.60;;;;;;4790875;29;20035;-74
2023/11/11 01:00:12;;;;;;;1.10;1.00;;;6.70;92.50;;;;;;4806732;29;20038;-74
2023/11/11 01:02:38;;;;;;;1.50;1.10;;;6.80;92.60;;;;;;4775437;29;20035;-74
2023/11/11 01:05:04;;;;;;;1.00;0.90;;;6.70;92.60;;;;;;4806339;29;20035;-74
2023/11/11 01:07:30;;;;;;;1.52;1.00;;;6.70;92.60;;;;;;4806179;29;20051;-74
2023/11/11 01:09:56;;;;;;;2.08;1.13;;;6.70;92.60;;;;;;4806153;29;20397;-74
2023/11/11 01:12:22;;;;;;;1.73;1.10;;;6.70;92.90;;;;;;4790104;29;20038;-74
2023/11/11 01:14:49;;;;;;;0.98;0.90;;;6.60;92.60;;;;;;4789685;29;20041;-74
2023/11/11 01:17:15;;;;;;;0.90;0.80;;;6.50;92.60;;;;;;4806102;29;21278;-74
2023/11/11 01:19:41;;;;;;;0.70;0.70;;;6.60;92.60;;;;;;4789761;29;20066;-75
2023/11/11 01:22:09;;;;;;;0.60;0.60;;;6.60;92.60;;;;;;4806100;29;20038;-74
2023/11/11 01:24:36;;;;;;;1.00;0.75;;;6.50;92.60;;;;;;4789724;29;20406;-74
2023/11/11 01:27:03;;;;;;;3.70;1.33;;;6.50;92.60;;;;;;4790195;29;20463;-74
2023/11/11 01:29:30;;;;;;;1.48;1.15;;;6.50;92.60;;;;;;4789622;29;20096;-74
2023/11/11 01:31:55;;;;;;;2.50;1.30;;;6.60;92.60;;;;;;4806337;29;20560;-74
2023/11/11 01:34:22;;;;;;;1.42;0.98;;;6.60;92.60;;;;;;4806240;29;20050;-74
2023/11/11 01:36:48;;;;;;;0.90;0.70;;;6.50;92.50;;;;;;4789665;29;20375;-75
2023/11/11 01:39:14;;;;;;;1.92;1.00;;;6.60;92.50;;;;;;4805527;29;20042;-74
2023/11/11 01:41:41;;;;;;;1.40;1.05;;;6.60;92.50;;;;;;4789716;29;20042;-74
2023/11/11 01:44:06;;;;;;;1.48;0.80;;;6.70;92.50;;;;;;4774823;29;20104;-74
2023/11/11 01:46:32;;;;;;;1.23;0.80;;;6.70;92.50;;;;;;4789637;29;20039;-74
2023/11/11 01:49:00;;;;;;;1.15;0.60;;;6.60;92.50;;;;;;4806018;29;20070;-74
2023/11/11 01:51:27;;;;;;;1.10;0.60;;;6.60;92.70;;;;;;4805851;29;20039;-74
2023/11/11 01:53:53;;;;;;;0.93;0.80;;;6.60;92.40;;;;;;4806055;29;20051;-75
2023/11/11 01:56:19;;;;;;;1.25;0.85;;;6.60;92.40;;;;;;4774440;29;20104;-74
2023/11/11 01:58:45;;;;;;;1.65;0.80;;;6.60;92.40;;;;;;4788246;29;20039;-74
2023/11/11 02:01:12;;;;;;;1.10;0.70;;;6.60;92.40;;;;;;4789364;29;20054;-74
2023/11/11 02:03:38;;;;;;;0.70;0.60;;;6.70;92.40;;;;;;4805461;29;20039;-74
2023/11/11 02:06:07;;;;;;;0.90;0.70;;;6.60;92.40;;;;;;4805827;29;20130;-74
2023/11/11 02:08:33;;;;;;;1.35;0.73;;;6.50;92.40;;;;;;4789158;29;20051;-74
2023/11/11 02:11:00;;;;;;;2.22;0.68;;;6.50;92.40;;;;;;4805830;29;20043;-74
2023/11/11 02:13:29;;;;;;;1.20;0.57;;;6.60;92.40;;;;;;4789067;29;20046;-74
2023/11/11 02:15:56;;;;;;;0.80;0.57;;;6.50;92.40;;;;;;4805039;29;20095;-74
2023/11/11 02:18:22;;;;;;;0.55;0.55;;;6.50;92.40;;;;;;4789255;29;20126;-74
2023/11/11 02:20:49;;;;;;;0.75;0.57;;;6.50;92.50;;;;;;4788876;29;20039;-74
2023/11/11 02:23:16;;;;;;;0.40;0.40;;;6.60;92.50;;;;;;4789053;29;20053;-74
2023/11/11 02:25:42;;;;;;;0.80;0.40;;;6.50;92.50;;;;;;4805252;29;20106;-74
2023/11/11 02:28:08;;;;;;;0.60;0.50;;;6.50;92.50;;;;;;4805043;29;20051;-74
2023/11/11 02:30:34;;;;;;;0.98;0.70;;;6.50;92.50;;;;;;4805688;29;20042;-75
2023/11/11 02:33:00;;;;;;;0.82;0.57;;;6.50;92.50;;;;;;4789360;29;20063;-74
2023/11/11 02:35:25;;;;;;;0.43;0.40;;;6.50;92.40;;;;;;4774396;29;20130;-74
2023/11/11 02:37:51;;;;;;;0.65;0.60;;;6.50;92.40;;;;;;4805691;29;20039;-74
2023/11/11 02:40:17;;;;;;;0.43;0.43;;;6.50;92.40;;;;;;4805094;29;20038;-74
2023/11/11 02:42:43;;;;;;;0.47;0.40;;;6.50;92.40;;;;;;4804968;29;20031;-74
2023/11/11 02:45:11;;;;;;;0.52;0.47;;;6.50;92.40;;;;;;4788599;29;20031;-74
2023/11/11 02:47:36;;;;;;;0.52;0.50;;;6.50;92.50;;;;;;4804858;29;20035;-74
2023/11/11 02:50:03;;;;;;;0.52;0.40;;;6.50;92.40;;;;;;4773863;29;20049;-74
2023/11/11 02:52:28;;;;;;;1.52;0.50;;;6.40;92.40;;;;;;4788663;29;20086;-74
2023/11/11 02:54:54;;;;;;;0.75;0.40;;;6.40;92.40;;;;;;4788324;29;20482;-74
2023/11/11 02:57:20;;;;;;;0.40;0.40;;;6.40;92.50;;;;;;4804732;29;20457;-74
2023/11/11 02:59:45;;;;;;;0.38;0.30;;;6.40;92.40;;;;;;4805217;29;20030;-74
2023/11/11 03:02:11;;;;;;;0.38;0.38;;;6.50;92.50;;;;;;4788849;29;20035;-74
2023/11/11 03:04:38;;;;;;;0.50;0.40;;;6.50;92.40;;;;;;4804540;29;20047;-75
2023/11/11 03:07:04;;;;;;;0.52;0.40;;;6.50;92.40;;;;;;4788567;29;20051;-74
2023/11/11 03:09:32;;;;;;;0.50;0.45;;;6.50;92.40;;;;;;4804029;29;20502;-74
2023/11/11 03:11:58;;;;;;;0.38;0.32;;;6.50;92.40;;;;;;4788820;29;20043;-74
2023/11/11 03:14:25;;;;;;;0.30;0.30;;;6.50;92.40;;;;;;4788261;29;20379;-75
2023/11/11 03:16:51;;;;;;;1.77;0.47;;;6.60;92.40;;;;;;4805057;29;20046;-75
2023/11/11 03:19:17;;;;;;;0.60;0.43;;;6.50;92.40;;;;;;4789002;29;20050;-74
2023/11/11 03:21:43;;;;;;;1.00;0.50;;;6.60;92.40;;;;;;4804416;29;20130;-75
2023/11/11 03:24:09;;;;;;;0.40;0.40;;;6.60;92.30;;;;;;4804174;29;20121;-75
2023/11/11 03:26:35;;;;;;;0.52;0.47;;;6.60;92.20;;;;;;4804927;29;20554;-75
2023/11/11 03:29:01;;;;;;;0.63;0.40;;;6.60;92.20;;;;;;4804285;29;20047;-74
2023/11/11 03:31:27;;;;;;;0.30;0.30;;;6.60;92.20;;;;;;4804675;29;20376;-75
2023/11/11 03:33:52;;;;;;;0.30;0.30;;;6.70;92.20;;;;;;4788074;29;20086;-74
2023/11/11 03:36:18;;;;;;;0.10;0.10;;;6.70;92.20;;;;;;4788128;29;20557;-74
2023/11/11 03:38:44;;;;;;;0.20;0.20;;;6.70;92.20;;;;;;4788095;29;20069;-75
2023/11/11 03:41:09;;;;;;;0.30;0.15;;;6.70;92.20;;;;;;4804412;29;20043;-74
2023/11/11 03:43:36;;;;;;;0.10;0.10;;;6.70;92.30;;;;;;4804751;29;20435;-75
2023/11/11 03:46:03;;;;;;;0.22;0.22;;;6.70;92.30;;;;;;4788001;29;20050;-74
2023/11/11 03:48:30;;;;;;;0.20;0.20;;;6.60;92.30;;;;;;4788269;29;20122;-75
2023/11/11 03:50:56;;;;;;;0.10;0.10;;;6.60;92.30;;;;;;4804611;29;20043;-76
2023/11/11 03:53:22;;;;;;;0.20;0.20;;;6.60;92.40;;;;;;4804236;29;20107;-74
2023/11/11 03:55:48;;;;;;;0.10;0.10;;;6.60;92.40;;;;;;4773480;29;20062;-75
2023/11/11 03:58:14;;;;;;;0.55;0.30;;;6.70;92.40;;;;;;4804179;29;20066;-74
2023/11/11 04:00:44;;;;;;;0.28;0.28;;;6.70;92.40;;;;;;4787991;29;20039;-74
2023/11/11 04:03:11;;;;;;;0.20;0.20;;;6.70;92.40;;;;;;4788367;29;20046;-74
2023/11/11 04:05:36;;;;;;;0.30;0.22;;;6.70;92.30;;;;;;4804056;29;20039;-75
2023/11/11 04:08:03;;;;;;;0.10;0.10;;;6.70;92.30;;;;;;4804294;29;20513;-75
2023/11/11 04:10:30;;;;;;;0.20;0.10;;;6.80;92.30;;;;;;4804312;29;20047;-74
2023/11/11 04:12:57;;;;;;;0.20;0.20;;;6.80;92.30;;;;;;4787299;29;20550;-75
2023/11/11 04:15:23;;;;;;;0.20;0.20;;;6.80;92.20;;;;;;4787745;29;20080;-74
2023/11/11 04:17:49;;;;;;;0.20;0.10;;;6.90;92.20;;;;;;4787358;29;20070;-75
2023/11/11 04:20:15;;;;;;;0.65;0.20;;;6.80;92.20;;;;;;4787540;29;20452;-74
2023/11/11 04:22:41;;;;;;;0.13;0.13;;;6.80;92.20;;;;;;4789055;29;20906;-74
2023/11/11 04:25:08;;;;;;;0.65;0.20;;;7.00;92.20;;;;;;4807025;29;20398;-74
2023/11/11 04:27:35;;;;;;;1.23;0.30;;;6.80;92.20;;;;;;4807315;29;20057;-74
2023/11/11 04:30:03;;;;;;;0.65;0.20;;;6.80;92.20;;;;;;4790709;29;20514;-74
2023/11/11 04:32:29;;;;;;;0.20;0.20;;;6.80;92.20;;;;;;4791243;29;20390;-75
2023/11/11 04:34:55;;;;;;;0.10;0.10;;;6.80;92.20;;;;;;4790485;29;20562;-74
2023/11/11 04:37:21;;;;;;;0.10;0.10;;;6.80;92.30;;;;;;4790637;29;20134;-74
2023/11/11 04:39:47;;;;;;;0.20;0.10;;;6.80;92.20;;;;;;4807199;29;20042;-74
2023/11/11 04:42:17;;;;;;;0.20;0.20;;;6.80;92.20;;;;;;4807184;29;20476;-74
2023/11/11 04:44:43;;;;;;;0.20;0.20;;;6.80;92.20;;;;;;4807260;29;20091;-74
2023/11/11 04:47:10;;;;;;;1.13;0.30;;;6.80;92.20;;;;;;4807174;29;20055;-74
2023/11/11 04:49:37;;;;;;;0.55;0.30;;;6.80;92.20;;;;;;4806768;29;20035;-75
2023/11/11 04:52:04;;;;;;;1.35;0.30;;;6.90;92.20;;;;;;4806642;29;20096;-74
2023/11/11 04:54:31;;;;;;;0.30;0.17;;;6.90;92.20;;;;;;4807004;29;20047;-75
2023/11/11 04:56:59;;;;;;;0.20;0.20;;;6.90;92.20;;;;;;4775703;29;20380;-75
2023/11/11 04:59:26;;;;;;;0.73;0.30;;;6.90;92.20;;;;;;4791175;29;20031;-75
2023/11/11 05:01:53;;;;;;;0.75;0.20;;;6.90;92.20;;;;;;4806714;29;20047;-75
2023/11/11 05:04:20;;;;;;;0.32;0.22;;;6.90;92.10;;;;;;4790789;29;20039;-75
2023/11/11 05:06:46;;;;;;;0.20;0.20;;;7.00;92.20;;;;;;4775892;29;20042;-74
2023/11/11 05:09:12;;;;;;;0.20;0.20;;;6.90;92.10;;;;;;4807291;29;20039;-76
2023/11/11 05:11:38;;;;;;;0.20;0.20;;;6.90;92.20;;;;;;4790636;29;20042;-75
2023/11/11 05:14:07;;;;;;;0.15;0.15;;;6.90;92.20;;;;;;4806729;29;20051;-75
2023/11/11 05:16:41;;;;;;;0.73;0.30;;;6.90;92.20;;;;;;4776074;29;20078;-75
2023/11/11 05:19:07;;;;;;;0.15;0.15;;;6.90;92.20;;;;;;4791018;29;20047;-75
2023/11/11 05:21:33;;;;;;;0.43;0.22;;;6.90;92.20;;;;;;4807081;29;20099;-75
2023/11/11 05:23:59;;;;;;;0.30;0.20;;;6.90;92.20;;;;;;4760547;29;20509;-75
2023/11/11 05:26:25;;;;;;;0.20;0.20;;;6.90;92.20;;;;;;4806922;29;20494;-75
2023/11/11 05:28:51;;;;;;;1.17;0.20;;;6.90;92.30;;;;;;4806428;29;20045;-75
2023/11/11 05:31:17;;;;;;;0.20;0.20;;;6.90;92.30;;;;;;4806746;29;20085;-75
2023/11/11 05:33:42;;;;;;;0.32;0.20;;;6.90;92.30;;;;;;4789992;29;20487;-75
2023/11/11 05:36:09;;;;;;;0.30;0.30;;;6.90;92.30;;;;;;4806634;29;20042;-75
2023/11/11 05:38:34;;;;;;;0.35;0.30;;;6.90;92.30;;;;;;4775881;29;20035;-75
2023/11/11 05:41:00;;;;;;;0.55;0.30;;;6.90;92.30;;;;;;4806382;29;20034;-76
2023/11/11 05:43:26;;;;;;;0.10;0.10;;;6.90;92.30;;;;;;4806278;29;20103;-76
2023/11/11 05:45:51;;;;;;;0.38;0.30;;;6.90;92.30;;;;;;4806818;29;20074;-76
2023/11/11 05:48:18;;;;;;;0.20;0.20;;;6.90;92.30;;;;;;4806869;29;20066;-76
2023/11/11 05:50:45;;;;;;;0.90;0.30;;;7.00;92.30;;;;;;4789771;29;20501;-76
2023/11/11 05:53:12;;;;;;;0.77;0.30;;;7.00;92.30;;;;;;4790042;29;20057;-77
2023/11/11 05:55:37;;;;;;;0.30;0.30;;;6.90;92.30;;;;;;4789853;29;20068;-76
2023/11/11 05:58:03;;;;;;;0.40;0.30;;;7.00;92.30;;;;;;4805953;29;20039;-77
2023/11/11 06:00:29;;;;;;;0.45;0.35;;;6.90;92.30;;;;;;4789579;29;20065;-76
2023/11/11 06:02:54;;;;;;;0.38;0.20;;;6.90;92.30;;;;;;4789801;29;20078;-76
2023/11/11 06:05:21;;;;;;;0.28;0.28;;;6.90;92.30;;;;;;4789971;29;20133;-75
2023/11/11 06:07:47;;;;;;;1.10;0.30;;;6.90;92.30;;;;;;4774876;29;20043;-78
2023/11/11 06:10:14;;;;;;;0.20;0.20;;;6.90;92.40;;;;;;4806098;29;20498;-77
2023/11/11 06:12:39;;;;;;;0.30;0.30;;;6.90;92.40;;;;;;4775255;29;20445;-76
2023/11/11 06:15:08;;;;;;;0.28;0.28;;;6.90;92.40;;;;;;4790042;29;20126;-77
2023/11/11 06:17:34;;;;;;;0.57;0.30;;;6.90;92.40;;;;;;4806261;29;20500;-77
2023/11/11 06:19:59;;;;;;;0.28;0.25;;;6.90;92.40;;;;;;4790095;29;20101;-77
2023/11/11 06:22:26;;;;;;;0.10;0.10;;;6.90;92.40;;;;;;4789344;29;20051;-77
2023/11/11 06:24:52;;;;;;;0.25;0.13;;;6.90;92.40;;;;;;4789584;29;20031;-76
2023/11/11 06:27:17;;;;;;;0.20;0.20;;;6.80;92.40;;;;;;4774468;29;20031;-77
2023/11/11 06:29:43;;;;;;;0.10;0.10;;;6.80;92.40;;;;;;4805476;29;20101;-76
2023/11/11 06:32:09;;;;;;;0.20;0.20;;;6.80;92.40;;;;;;4774512;29;20046;-76
2023/11/11 06:34:34;;;;;;;0.13;0.13;;;6.80;92.50;;;;;;4789859;29;20063;-76
2023/11/11 06:37:00;;;;;;;0.20;0.20;;;6.80;92.50;;;;;;4789147;29;20049;-77
2023/11/11 06:39:30;;;;;;;0.10;0.10;;;6.80;92.50;;;;;;4759335;29;20035;-76
2023/11/11 06:41:56;;;;;;;0.10;0.10;;;6.80;92.50;;;;;;4790018;29;20046;-76
2023/11/11 06:44:21;;;;;;;0.40;0.30;;;6.80;92.50;;;;;;4804647;29;20047;-76
2023/11/11 06:46:47;;;;;;;0.80;0.20;;;6.80;92.50;;;;;;4805562;29;20491;-76
2023/11/11 06:49:13;;;;;;;0.43;0.20;;;6.80;92.50;;;;;;4805416;29;20074;-76
2023/11/11 06:51:39;;;;;;;0.10;0.10;;;6.90;92.50;;;;;;4805652;29;20070;-76
2023/11/11 06:54:07;;;;;;;0.25;0.25;;;6.80;92.50;;;;;;4805558;29;20047;-76
2023/11/11 06:56:32;;;;;;;0.20;0.20;;;6.80;92.50;;;;;;4789030;29;20039;-76
2023/11/11 06:58:58;;;;;;;0.30;0.25;;;6.80;92.50;;;;;;4789125;29;20042;-76
2023/11/11 07:01:24;;;;;;;0.20;0.20;;;6.80;92.50;;;;;;4789225;29;20039;-76
2023/11/11 07:03:50;;;;;;;0.70;0.30;;;6.70;92.50;;;;;;4805547;29;20510;-77
2023/11/11 07:06:22;;;;;;;0.20;0.20;;;6.80;92.60;;;;;;4789137;29;20043;-76
2023/11/11 07:08:50;;;;;;;0.63;0.35;;;6.80;92.60;;;;;;4805726;29;20521;-76
2023/11/11 07:11:16;;;;;;;0.30;0.30;;;6.80;92.60;;;;;;4805254;29;20443;-76
2023/11/11 07:13:43;;;;;;;0.20;0.20;;;6.70;92.50;;;;;;4804988;29;20187;-76
2023/11/11 07:16:12;;;;;;;0.30;0.30;;;6.70;92.50;;;;;;4774432;29;20069;-76
2023/11/11 07:18:40;;;;;;;0.85;0.40;;;6.70;92.50;;;;;;4789298;29;20391;-76
2023/11/11 07:21:06;;;;;;;0.30;0.30;;;6.70;92.60;;;;;;4788947;29;20054;-76
2023/11/11 07:23:32;;;;;;;0.57;0.30;;;6.70;92.60;;;;;;4788732;29;20039;-76
2023/11/11 07:25:58;;;;;;;0.47;0.25;;;6.70;92.60;;;;;;4773723;29;20817;-76
2023/11/11 07:28:26;;;;;;;0.10;0.10;;;6.60;92.60;;;;;;4788468;29;20118;-76
2023/11/11 07:30:51;;;;;;;0.35;0.30;;;6.60;92.60;;;;;;4804725;29;20043;-76
2023/11/11 07:33:17;;;;;;;0.20;0.20;;;6.60;92.60;;;;;;4804776;29;20043;-76
2023/11/11 07:35:43;;;;;;;0.20;0.20;;;6.70;92.70;;;;;;4788692;29;20479;-76
2023/11/11 07:38:09;;;;;;;0.60;0.20;;;6.60;92.70;;;;;;4805408;29;20034;-76
2023/11/11 07:40:35;;;;;;;0.98;0.20;;;6.60;92.60;;;;;;4788397;29;20546;-76
2023/11/11 07:43:00;;;;;;;0.20;0.20;;;6.60;92.60;;;;;;4805387;29;20050;-76
2023/11/11 07:45:26;;;;;;;0.20;0.20;;;6.60;92.60;;;;;;4805017;29;20104;-76
2023/11/11 07:47:52;;;;;;;0.20;0.20;;;6.60;92.60;;;;;;4788504;29;20043;-75
2023/11/11 07:50:19;;;;;;;0.20;0.20;;;6.60;92.60;;;;;;4788436;29;20071;-76
2023/11/11 07:52:45;;;;;;;0.32;0.30;;;6.60;92.60;;;;;;4788455;29;20074;-76
2023/11/11 07:55:12;;;;;;;0.20;0.20;;;6.50;92.60;;;;;;4805054;29;20508;-75
2023/11/11 07:57:37;;;;;;;0.25;0.20;;;6.60;92.60;;;;;;4791371;29;20081;-75
2023/11/11 08:00:06;;;;;;;0.20;0.20;;;6.60;92.60;;;;;;4791711;29;20067;-75
2023/11/11 08:02:32;;;;;;;0.20;0.20;;;6.50;92.60;;;;;;4807517;29;20125;-75
2023/11/11 08:04:58;;;;;;;0.52;0.30;;;6.50;92.60;;;;;;4791394;29;20134;-75
2023/11/11 08:07:23;;;;;;;0.20;0.20;;;6.50;92.60;;;;;;4776446;29;20047;-76
2023/11/11 08:09:50;;;;;;;0.45;0.30;;;6.50;92.60;;;;;;4776405;29;20057;-75
2023/11/11 08:12:17;;;;;;;0.10;0.10;;;6.60;92.60;;;;;;4807581;29;20505;-75
2023/11/11 08:14:43;;;;;;;0.25;0.20;;;6.60;92.50;;;;;;4807835;29;20047;-76
2023/11/11 08:17:09;;;;;;;0.30;0.30;;;6.60;92.50;;;;;;4807671;29;20043;-75
2023/11/11 08:19:34;;;;;;;0.10;0.10;;;6.60;92.50;;;;;;4791205;29;20111;-75
2023/11/11 08:22:00;;;;;;;0.20;0.20;;;6.70;92.50;;;;;;4790931;29;20552;-75
2023/11/11 08:24:27;;;;;;;0.15;0.15;;;6.70;92.50;;;;;;4807216;29;20046;-75
2023/11/11 08:26:53;;;;;;;0.20;0.20;;;6.70;92.50;;;;;;4807266;29;20521;-75
2023/11/11 08:29:20;;;;;;;0.20;0.20;;;6.70;92.50;;;;;;4807320;29;20043;-75
2023/11/11 08:31:46;;;;;;;0.20;0.20;;;6.70;92.40;;;;;;4791791;29;20364;-75
2023/11/11 08:34:12;;;;;;;0.17;0.17;;;6.80;92.40;;;;;;4776249;29;20058;-75
2023/11/11 08:36:37;;;;;;;0.28;0.20;;;6.80;92.40;;;;;;4790858;29;20046;-75
2023/11/11 08:39:05;;;;;;;0.30;0.22;;;6.80;92.30;;;;;;4791046;29;20039;-76
2023/11/11 08:41:30;;;;;;;0.70;0.20;;;6.90;92.30;;;;;;4806908;29;20106;-75
2023/11/11 08:43:56;;;;;;;0.20;0.20;;;7.00;92.30;;;;;;4807098;29;20046;-75
2023/11/11 08:46:21;;;;;;;0.20;0.20;;;7.00;92.20;;;;;;4790634;29;20114;-75
2023/11/11 08:48:47;;;;;;;0.30;0.28;;;7.10;92.20;;;;;;4790659;29;20101;-75
2023/11/11 08:51:13;;;;;;;0.20;0.20;;;7.20;92.10;;;;;;4807345;29;20074;-75
2023/11/11 08:53:39;;;;;;;0.20;0.20;;;7.30;92.00;;;;;;4807294;29;20399;-74
2023/11/11 08:56:05;;;;;;;0.10;0.10;;;7.30;91.90;;;;;;4789312;29;20039;-74
2023/11/11 08:58:31;;;;;;;0.15;0.15;;;7.30;91.90;;;;;;4806958;29;20543;-74
2023/11/11 09:00:57;;;;;;;0.20;0.20;;;7.40;91.90;;;;;;4806513;29;20398;-74
2023/11/11 09:03:23;;;;;;;0.30;0.30;;;7.40;91.90;;;;;;4806629;29;20074;-74
2023/11/11 09:05:50;;;;;;;0.20;0.20;;;7.40;91.90;;;;;;4806588;29;20490;-74
2023/11/11 09:08:15;;;;;;;0.20;0.20;;;7.50;91.90;;;;;;4806360;29;20061;-74
2023/11/11 09:10:41;;;;;;;0.13;0.13;;;7.50;91.80;;;;;;4806519;29;20047;-75
2023/11/11 09:13:10;;;;;;;0.17;0.15;;;7.50;91.80;;;;;;4775434;29;20059;-74
2023/11/11 09:15:37;;;;;;;0.88;0.30;;;7.50;91.80;;;;;;4790796;29;20038;-74
2023/11/11 09:18:03;;;;;;;0.40;0.20;;;7.50;91.80;;;;;;4806451;29;20046;-75
2023/11/11 09:20:30;;;;;;;0.20;0.20;;;7.60;91.80;;;;;;4806466;29;20394;-75
2023/11/11 09:22:56;;;;;;;0.10;0.10;;;7.50;91.80;;;;;;4806443;29;20478;-75
2023/11/11 09:25:22;;;;;;;0.20;0.20;;;7.50;91.90;;;;;;4807015;29;20035;-75
2023/11/11 09:27:47;;;;;;;0.20;0.20;;;7.50;91.90;;;;;;4806308;29;20042;-74
2023/11/11 09:30:13;;;;;;;0.57;0.20;;;7.50;92.00;;;;;;4806329;29;20118;-75
2023/11/11 09:32:39;;;;;;;0.30;0.30;;;7.60;92.00;;;;;;4789978;29;20134;-76
2023/11/11 09:35:06;;;;;;;0.20;0.20;;;7.60;92.00;;;;;;4790381;29;20047;-75
2023/11/11 09:37:32;;;;;;;0.20;0.20;;;7.60;92.00;;;;;;4805982;29;20038;-76
2023/11/11 09:39:58;;;;;;;0.80;0.30;;;7.60;92.00;;;;;;4789909;29;20380;-75
2023/11/11 09:42:24;;;;;;;0.80;0.47;;;7.60;92.00;;;;;;4806148;29;20852;-76
2023/11/11 09:44:49;;;;;;;0.30;0.30;;;7.70;92.00;;;;;;4806154;29;20039;-76
2023/11/11 09:47:20;;;;;;;0.52;0.30;;;7.70;92.00;;;;;;4774844;29;20050;-77
2023/11/11 09:49:46;;;;;;;0.63;0.30;;;7.80;92.00;;;;;;4774743;29;20043;-75
2023/11/11 09:52:13;;;;;;;0.20;0.20;;;7.80;92.00;;;;;;4789728;29;20047;-75
2023/11/11 09:54:41;;;;;;;0.75;0.40;;;7.90;92.00;;;;;;4789693;29;20055;-75
2023/11/11 09:57:10;;;;;;;0.85;0.60;;;7.80;91.90;;;;;;4790421;29;20390;-75
2023/11/11 09:59:36;;;;;;;1.65;0.60;;;7.80;91.90;;;;;;4789996;29;20039;-75
2023/11/11 10:02:02;;;;;;;2.22;0.80;;;7.80;92.00;;;;;;4789880;29;20559;-76
2023/11/11 10:04:28;;;;;;;2.17;0.77;;;7.80;92.00;;;;;;4805887;29;20424;-77
2023/11/11 10:06:56;;;;;;;1.00;0.70;;;7.80;92.00;;;;;;4789441;29;20096;-77
2023/11/11 10:09:24;;;;;;;0.90;0.70;;;7.70;92.00;;;;;;4775056;29;20065;-76
2023/11/11 10:11:53;;;;;;;1.13;0.88;;;7.80;92.10;;;;;;4758715;29;20066;-75
2023/11/11 10:14:21;;;;;;;2.33;0.88;;;7.80;92.10;;;;;;4759737;29;20079;-76
2023/11/11 10:16:52;;;;;;;1.13;0.90;;;7.80;92.30;;;;;;4774924;29;20514;-75
2023/11/11 10:19:18;;;;;;;0.90;0.70;;;7.80;92.00;;;;;;4774668;29;20043;-76
2023/11/11 10:21:44;;;;;;;1.10;0.70;;;7.90;92.00;;;;;;4788972;29;20042;-76
2023/11/11 10:24:12;;;;;;;1.45;0.75;;;8.00;92.00;;;;;;4774009;29;20422;-77
2023/11/11 10:27:07;;;;;;;1.00;0.70;;;7.90;92.00;;;;;;4774081;29;20088;-78
2023/11/11 10:29:35;;;;;;;1.38;0.80;;;8.00;92.00;;;;;;4734821;30;20052;-73
2023/11/11 10:32:08;;;;;;;0.90;0.70;;;8.00;91.90;;;;;;4706580;30;20581;-74
2023/11/11 10:34:36;;;;;;;1.45;0.90;;;8.10;91.90;;;;;;4749659;30;20083;-74
2023/11/11 10:37:03;;;;;;;0.77;0.77;;;8.10;91.90;;;;;;4750136;30;20044;-75
2023/11/11 10:39:30;;;;;;;1.23;0.80;;;8.10;92.00;;;;;;4749235;30;20131;-74
2023/11/11 10:41:56;;;;;;;1.77;0.85;;;8.10;92.20;;;;;;4749332;30;20059;-74
2023/11/11 10:44:23;;;;;;;1.48;1.00;;;8.20;91.90;;;;;;4749294;30;20052;-74
2023/11/11 10:46:48;;;;;;;2.28;1.00;;;8.20;91.80;;;;;;4749498;30;20098;-74
2023/11/11 10:49:15;;;;;;;1.25;0.77;;;8.30;91.80;;;;;;4719975;30;20056;-74
2023/11/11 10:51:41;;;;;;;1.25;0.80;;;8.30;91.80;;;;;;4748953;30;20550;-74
2023/11/11 10:54:08;;;;;;;0.93;0.80;;;8.20;91.80;;;;;;4749065;30;20505;-74
2023/11/11 10:56:34;;;;;;;2.72;1.08;;;8.30;91.80;;;;;;4735117;30;20424;-74
2023/11/11 10:59:04;;;;;;;1.40;1.00;;;8.30;91.80;;;;;;4749106;30;20125;-74
2023/11/11 11:01:32;;;;;;;1.02;0.77;;;8.40;91.80;;;;;;4801684;29;20043;-75
2023/11/11 11:03:59;;;;;;;1.58;0.80;;;8.30;91.70;;;;;;4788810;29;20039;-75
2023/11/11 11:06:42;;;;;;;0.80;0.80;;;8.40;91.80;;;;;;4805224;29;20047;-75
2023/11/11 11:09:51;;;;;;;1.40;0.80;;;8.50;91.70;;;;;;4788392;29;20491;-76
2023/11/11 11:12:38;;;;;;;0.90;0.80;;;8.50;91.70;;;;;;4794339;29;20039;-74
2023/11/11 11:15:06;;;;;;;1.88;0.90;;;8.60;91.70;;;;;;4805472;29;20051;-74
2023/11/11 11:17:40;;;;;;;0.65;0.65;;;8.60;91.70;;;;;;4805207;29;20481;-75
2023/11/11 11:20:14;;;;;;;1.23;0.70;;;8.60;91.60;;;;;;4773759;29;20054;-74
2023/11/11 11:22:42;;;;;;;1.58;0.90;;;8.70;91.60;;;;;;4789687;29;20071;-74
2023/11/11 11:25:39;;;;;;;1.63;0.60;;;8.80;91.60;;;;;;4805092;29;20130;-75
2023/11/11 11:28:17;;;;;;;1.02;0.75;;;8.90;91.60;;;;;;4804559;29;20058;-75
2023/11/11 11:30:46;;;;;;;0.93;0.50;;;9.00;91.50;;;;;;4787977;29;20055;-75
2023/11/11 11:33:14;;;;;;;1.05;0.65;;;9.00;91.40;;;;;;4773276;29;20575;-75
2023/11/11 11:35:44;;;;;;;0.50;0.50;;;9.00;91.40;;;;;;4788618;29;20047;-75
2023/11/11 11:38:10;;;;;;;1.10;0.63;;;9.00;91.40;;;;;;4789338;29;20078;-75
2023/11/11 11:40:37;;;;;;;1.02;0.73;;;9.00;91.40;;;;;;4773304;29;20046;-75
2023/11/11 11:43:10;;;;;;;1.55;0.50;;;8.90;91.40;;;;;;4788446;29;21437;-75
2023/11/11 11:45:37;;;;;;;0.40;0.40;;;8.90;91.40;;;;;;4804503;29;20082;-75
2023/11/11 11:48:06;;;;;;;1.40;0.55;;;8.90;91.50;;;;;;4773126;29;20141;-75
2023/11/11 11:50:35;;;;;;;0.40;0.40;;;8.90;91.50;;;;;;4787641;29;20043;-76
2023/11/11 11:53:02;;;;;;;0.88;0.50;;;8.80;91.50;;;;;;4803913;29;20444;-75
2023/11/11 11:55:38;;;;;;;0.60;0.50;;;8.80;91.60;;;;;;4804232;29;20039;-76
2023/11/11 11:58:04;;;;;;;1.00;0.35;;;8.90;91.60;;;;;;4773352;29;20058;-75
2023/11/11 12:00:34;;;;;;;0.50;0.40;;;8.90;91.60;;;;;;4804196;29;20436;-75
2023/11/11 12:03:01;;;;;;;0.47;0.20;;;8.80;91.50;;;;;;4789297;29;20113;-75
2023/11/11 12:05:27;;;;;;;0.40;0.40;;;8.80;91.50;;;;;;4804083;29;20115;-75
2023/11/11 12:07:53;;;;;;;0.73;0.30;;;8.90;91.60;;;;;;4803839;29;20059;-75
2023/11/11 12:10:19;;;;;;;0.45;0.32;;;8.90;91.60;;;;;;4787866;29;20080;-75
2023/11/11 12:12:47;;;;;;;1.55;0.28;;;8.90;91.50;;;;;;4788103;29;20051;-75
2023/11/11 12:15:15;;;;;;;0.17;0.17;;;8.90;91.50;;;;;;4786542;29;20055;-76
2023/11/11 12:17:42;;;;;;;0.57;0.40;;;8.80;91.50;;;;;;4773381;29;20050;-75
2023/11/11 12:20:10;;;;;;;0.30;0.30;;;8.80;91.50;;;;;;4804313;29;20406;-75
2023/11/11 12:22:44;;;;;;;0.40;0.40;;;8.90;91.60;;;;;;4772890;29;20513;-75
2023/11/11 12:25:10;;;;;;;0.40;0.35;;;8.90;91.60;;;;;;4803956;29;20050;-75
2023/11/11 12:27:37;;;;;;;1.15;0.40;;;9.00;91.60;;;;;;4787476;29;20405;-76
2023/11/11 12:30:20;;;;;;;0.30;0.30;;;9.10;91.60;;;;;;4787739;29;20047;-76
2023/11/11 12:33:00;;;;;;;0.20;0.20;;;9.30;91.40;;;;;;4787466;29;20065;-76
2023/11/11 12:35:26;;;;;;;0.32;0.30;;;9.40;91.30;;;;;;4804123;29;20452;-76
2023/11/11 12:37:53;;;;;;;0.50;0.40;;;9.40;91.10;;;;;;4804058;29;20038;-76
2023/11/11 12:40:30;;;;;;;0.45;0.30;;;9.40;91.10;;;;;;4804191;29;20487;-76
2023/11/11 12:42:56;;;;;;;0.30;0.30;;;9.30;91.10;;;;;;4804138;29;20036;-76
2023/11/11 12:45:22;;;;;;;0.35;0.30;;;9.40;91.10;;;;;;4775807;29;20050;-76
2023/11/11 12:47:53;;;;;;;0.32;0.32;;;9.40;91.10;;;;;;4775675;29;20050;-75
2023/11/11 12:50:32;;;;;;;0.82;0.28;;;9.30;91.10;;;;;;4807138;29;20035;-76
2023/11/11 12:53:04;;;;;;;0.85;0.38;;;9.30;91.20;;;;;;4806351;29;20049;-76
2023/11/11 12:55:30;;;;;;;0.30;0.30;;;9.20;91.20;;;;;;4806851;29;20039;-75
2023/11/11 12:58:18;;;;;;;0.35;0.35;;;9.40;91.40;;;;;;4790267;29;20505;-76